sensor_id;sensor_type;location;lat;lon;timestamp;P1;durP1;ratioP1;P2;durP2;ratioP2
55833;SDS011;41761;43.004;-0.066;2022-11-06T00:00:43;9.75;;;4.70;;
55833;SDS011;41761;43.004;-0.066;2022-11-06T00:03:10;15.82;;;3.97;;
55833;SDS011;41761;43.004;-0.066;2022-11-06T00:05:40;22.30;;;4.90;;
55833;SDS011;41761;43.004;-0.066;2022-11-06T00:08:26;30.20;;;5.28;;
55833;SDS011;41761;43.004;-0.066;2022-11-06T00:10:52;8.57;;;4.30;;
55833;SDS011;41761;43.004;-0.066;2022-11-06T00:13:19;11.50;;;4.32;;
55833;SDS011;41761;43.004;-0.066;2022-11-06T00:15:45;14.07;;;5.18;;
55833;SDS011;41761;43.004;-0.066;2022-11-06T00:18:11;16.15;;;4.75;;
55833;SDS011;41761;43.004;-0.066;2022-11-06T00:20:38;15.05;;;5.00;;
55833;SDS011;41761;43.004;-0.066;2022-11-06T00:23:04;12.15;;;4.97;;
55833;SDS011;41761;43.004;-0.066;2022-11-06T00:25:30;8.85;;;3.60;;
55833;SDS011;41761;43.004;-0.066;2022-11-06T00:27:56;6.47;;;4.70;;
55833;SDS011;41761;43.004;-0.066;2022-11-06T00:30:22;12.50;;;4.60;;
55833;SDS011;41761;43.004;-0.066;2022-11-06T00:32:48;12.00;;;5.57;;
55833;SDS011;41761;43.004;-0.066;2022-11-06T00:35:14;18.17;;;4.53;;
55833;SDS011;41761;43.004;-0.066;2022-11-06T00:37:41;9.05;;;3.88;;
55833;SDS011;41761;43.004;-0.066;2022-11-06T00:40:07;19.33;;;4.53;;
55833;SDS011;41761;43.004;-0.066;2022-11-06T00:42:33;6.22;;;4.25;;
55833;SDS011;41761;43.004;-0.066;2022-11-06T00:44:59;11.95;;;3.80;;
55833;SDS011;41761;43.004;-0.066;2022-11-06T00:47:25;14.27;;;4.82;;
55833;SDS011;41761;43.004;-0.066;2022-11-06T00:49:52;10.20;;;4.80;;
55833;SDS011;41761;43.004;-0.066;2022-11-06T00:52:18;14.95;;;4.90;;
55833;SDS011;41761;43.004;-0.066;2022-11-06T00:54:44;9.38;;;4.80;;
55833;SDS011;41761;43.004;-0.066;2022-11-06T00:57:10;15.13;;;4.70;;
55833;SDS011;41761;43.004;-0.066;2022-11-06T00:59:36;11.00;;;4.28;;
55833;SDS011;41761;43.004;-0.066;2022-11-06T01:02:03;12.70;;;4.25;;
55833;SDS011;41761;43.004;-0.066;2022-11-06T01:04:29;12.63;;;4.15;;
55833;SDS011;41761;43.004;-0.066;2022-11-06T01:06:55;11.13;;;4.32;;
55833;SDS011;41761;43.004;-0.066;2022-11-06T01:09:22;8.10;;;4.10;;
55833;SDS011;41761;43.004;-0.066;2022-11-06T01:11:50;16.55;;;3.97;;
55833;SDS011;41761;43.004;-0.066;2022-11-06T01:14:17;9.48;;;4.40;;
55833;SDS011;41761;43.004;-0.066;2022-11-06T01:16:44;12.15;;;4.15;;
55833;SDS011;41761;43.004;-0.066;2022-11-06T01:19:12;7.07;;;3.63;;
55833;SDS011;41761;43.004;-0.066;2022-11-06T01:21:39;7.18;;;3.53;;
55833;SDS011;41761;43.004;-0.066;2022-11-06T01:24:07;14.77;;;4.85;;
55833;SDS011;41761;43.004;-0.066;2022-11-06T01:26:35;10.70;;;3.85;;
55833;SDS011;41761;43.004;-0.066;2022-11-06T01:29:01;11.20;;;3.53;;
55833;SDS011;41761;43.004;-0.066;2022-11-06T01:31:29;13.00;;;4.55;;
55833;SDS011;41761;43.004;-0.066;2022-11-06T01:33:55;8.05;;;4.30;;
55833;SDS011;41761;43.004;-0.066;2022-11-06T01:36:22;13.30;;;4.35;;
55833;SDS011;41761;43.004;-0.066;2022-11-06T01:38:49;8.40;;;3.80;;
55833;SDS011;41761;43.004;-0.066;2022-11-06T01:41:18;20.20;;;3.72;;
55833;SDS011;41761;43.004;-0.066;2022-11-06T01:43:46;12.27;;;4.13;;
55833;SDS011;41761;43.004;-0.066;2022-11-06T01:46:14;13.02;;;4.65;;
55833;SDS011;41761;43.004;-0.066;2022-11-06T01:48:41;6.80;;;4.13;;
55833;SDS011;41761;43.004;-0.066;2022-11-06T01:51:08;12.25;;;4.80;;
55833;SDS011;41761;43.004;-0.066;2022-11-06T01:53:34;8.60;;;4.32;;
55833;SDS011;41761;43.004;-0.066;2022-11-06T01:56:02;9.13;;;4.18;;
55833;SDS011;41761;43.004;-0.066;2022-11-06T01:58:30;17.55;;;3.83;;
55833;SDS011;41761;43.004;-0.066;2022-11-06T02:00:57;10.50;;;4.32;;
55833;SDS011;41761;43.004;-0.066;2022-11-06T02:03:23;32.35;;;5.40;;
55833;SDS011;41761;43.004;-0.066;2022-11-06T02:05:50;10.13;;;3.65;;
55833;SDS011;41761;43.004;-0.066;2022-11-06T02:08:17;9.73;;;4.07;;
55833;SDS011;41761;43.004;-0.066;2022-11-06T02:10:44;7.97;;;3.83;;
55833;SDS011;41761;43.004;-0.066;2022-11-06T02:13:20;7.05;;;3.78;;
55833;SDS011;41761;43.004;-0.066;2022-11-06T02:16:08;4.97;;;4.03;;
55833;SDS011;41761;43.004;-0.066;2022-11-06T02:32:26;9.05;;;3.47;;
55833;SDS011;41761;43.004;-0.066;2022-11-06T02:34:54;9.07;;;3.13;;
55833;SDS011;41761;43.004;-0.066;2022-11-06T02:37:23;6.95;;;3.72;;
55833;SDS011;41761;43.004;-0.066;2022-11-06T02:39:51;15.02;;;4.75;;
55833;SDS011;41761;43.004;-0.066;2022-11-06T02:42:18;8.50;;;4.10;;
55833;SDS011;41761;43.004;-0.066;2022-11-06T02:44:46;10.50;;;4.22;;
55833;SDS011;41761;43.004;-0.066;2022-11-06T02:47:13;6.32;;;3.33;;
55833;SDS011;41761;43.004;-0.066;2022-11-06T02:52:10;9.30;;;3.70;;
55833;SDS011;41761;43.004;-0.066;2022-11-06T02:54:38;6.68;;;3.08;;
55833;SDS011;41761;43.004;-0.066;2022-11-06T02:57:07;15.48;;;4.03;;
55833;SDS011;41761;43.004;-0.066;2022-11-06T02:59:38;9.15;;;3.15;;
55833;SDS011;41761;43.004;-0.066;2022-11-06T03:02:07;11.65;;;3.83;;
55833;SDS011;41761;43.004;-0.066;2022-11-06T03:04:50;8.23;;;3.25;;
55833;SDS011;41761;43.004;-0.066;2022-11-06T03:07:19;4.82;;;3.30;;
55833;SDS011;41761;43.004;-0.066;2022-11-06T03:09:47;8.40;;;3.25;;
55833;SDS011;41761;43.004;-0.066;2022-11-06T03:12:23;11.60;;;3.28;;
55833;SDS011;41761;43.004;-0.066;2022-11-06T03:17:17;17.83;;;3.55;;
55833;SDS011;41761;43.004;-0.066;2022-11-06T03:19:47;3.83;;;3.17;;
55833;SDS011;41761;43.004;-0.066;2022-11-06T03:24:54;10.32;;;2.90;;
55833;SDS011;41761;43.004;-0.066;2022-11-06T03:27:24;2.70;;;2.50;;
55833;SDS011;41761;43.004;-0.066;2022-11-06T03:29:56;12.23;;;3.50;;
55833;SDS011;41761;43.004;-0.066;2022-11-06T03:35:30;4.90;;;2.95;;
55833;SDS011;41761;43.004;-0.066;2022-11-06T03:38:04;6.80;;;2.67;;
55833;SDS011;41761;43.004;-0.066;2022-11-06T03:40:33;7.25;;;2.72;;
55833;SDS011;41761;43.004;-0.066;2022-11-06T03:43:01;8.55;;;2.95;;
55833;SDS011;41761;43.004;-0.066;2022-11-06T03:45:28;8.05;;;3.08;;
55833;SDS011;41761;43.004;-0.066;2022-11-06T03:47:57;5.65;;;2.20;;
55833;SDS011;41761;43.004;-0.066;2022-11-06T03:50:35;8.48;;;3.22;;
55833;SDS011;41761;43.004;-0.066;2022-11-06T03:55:30;6.32;;;2.92;;
55833;SDS011;41761;43.004;-0.066;2022-11-06T03:58:16;5.80;;;3.15;;
55833;SDS011;41761;43.004;-0.066;2022-11-06T04:00:44;6.15;;;2.78;;
55833;SDS011;41761;43.004;-0.066;2022-11-06T04:03:16;8.85;;;2.67;;
55833;SDS011;41761;43.004;-0.066;2022-11-06T04:05:46;10.65;;;2.70;;
55833;SDS011;41761;43.004;-0.066;2022-11-06T04:08:13;4.68;;;2.30;;
55833;SDS011;41761;43.004;-0.066;2022-11-06T04:11:00;6.68;;;3.03;;
55833;SDS011;41761;43.004;-0.066;2022-11-06T04:13:45;6.68;;;2.50;;
55833;SDS011;41761;43.004;-0.066;2022-11-06T04:16:22;11.65;;;3.13;;
55833;SDS011;41761;43.004;-0.066;2022-11-06T04:18:49;2.42;;;2.22;;
55833;SDS011;41761;43.004;-0.066;2022-11-06T04:26:42;3.00;;;2.22;;
55833;SDS011;41761;43.004;-0.066;2022-11-06T04:34:28;17.05;;;2.72;;
55833;SDS011;41761;43.004;-0.066;2022-11-06T04:37:00;2.97;;;2.78;;
55833;SDS011;41761;43.004;-0.066;2022-11-06T04:45:20;3.25;;;2.58;;
55833;SDS011;41761;43.004;-0.066;2022-11-06T04:47:48;11.43;;;2.45;;
55833;SDS011;41761;43.004;-0.066;2022-11-06T04:50:16;7.10;;;2.30;;
55833;SDS011;41761;43.004;-0.066;2022-11-06T04:52:43;2.97;;;2.72;;
55833;SDS011;41761;43.004;-0.066;2022-11-06T04:55:10;13.75;;;3.15;;
55833;SDS011;41761;43.004;-0.066;2022-11-06T04:57:36;4.80;;;2.75;;
55833;SDS011;41761;43.004;-0.066;2022-11-06T05:00:02;6.55;;;2.67;;
55833;SDS011;41761;43.004;-0.066;2022-11-06T05:02:29;4.70;;;2.40;;
55833;SDS011;41761;43.004;-0.066;2022-11-06T05:04:55;5.38;;;2.63;;
55833;SDS011;41761;43.004;-0.066;2022-11-06T05:07:21;2.83;;;2.63;;
55833;SDS011;41761;43.004;-0.066;2022-11-06T05:09:47;8.38;;;2.75;;
55833;SDS011;41761;43.004;-0.066;2022-11-06T05:12:13;12.23;;;2.40;;
55833;SDS011;41761;43.004;-0.066;2022-11-06T05:14:39;3.05;;;2.22;;
55833;SDS011;41761;43.004;-0.066;2022-11-06T05:17:08;2.83;;;2.47;;
55833;SDS011;41761;43.004;-0.066;2022-11-06T05:19:34;5.93;;;2.22;;
55833;SDS011;41761;43.004;-0.066;2022-11-06T05:22:01;4.95;;;2.25;;
55833;SDS011;41761;43.004;-0.066;2022-11-06T05:24:45;3.47;;;2.63;;
55833;SDS011;41761;43.004;-0.066;2022-11-06T05:27:12;3.55;;;1.92;;
55833;SDS011;41761;43.004;-0.066;2022-11-06T05:29:38;6.18;;;2.72;;
55833;SDS011;41761;43.004;-0.066;2022-11-06T05:32:04;3.25;;;2.47;;
55833;SDS011;41761;43.004;-0.066;2022-11-06T05:34:30;5.93;;;2.28;;
55833;SDS011;41761;43.004;-0.066;2022-11-06T05:36:56;4.65;;;2.15;;
55833;SDS011;41761;43.004;-0.066;2022-11-06T05:39:23;6.72;;;2.75;;
55833;SDS011;41761;43.004;-0.066;2022-11-06T05:41:49;6.18;;;2.42;;
55833;SDS011;41761;43.004;-0.066;2022-11-06T05:44:15;2.67;;;2.58;;
55833;SDS011;41761;43.004;-0.066;2022-11-06T05:46:41;8.02;;;2.45;;
55833;SDS011;41761;43.004;-0.066;2022-11-06T05:49:07;4.63;;;2.78;;
55833;SDS011;41761;43.004;-0.066;2022-11-06T05:51:34;4.20;;;2.45;;
55833;SDS011;41761;43.004;-0.066;2022-11-06T05:54:00;2.47;;;2.28;;
55833;SDS011;41761;43.004;-0.066;2022-11-06T05:56:26;4.90;;;2.63;;
55833;SDS011;41761;43.004;-0.066;2022-11-06T05:58:53;2.92;;;2.65;;
55833;SDS011;41761;43.004;-0.066;2022-11-06T06:01:19;11.15;;;3.08;;
55833;SDS011;41761;43.004;-0.066;2022-11-06T06:03:45;3.65;;;2.33;;
55833;SDS011;41761;43.004;-0.066;2022-11-06T06:06:11;2.63;;;2.53;;
55833;SDS011;41761;43.004;-0.066;2022-11-06T06:08:37;5.38;;;2.42;;
55833;SDS011;41761;43.004;-0.066;2022-11-06T06:11:04;5.57;;;2.53;;
55833;SDS011;41761;43.004;-0.066;2022-11-06T06:13:31;2.17;;;1.98;;
55833;SDS011;41761;43.004;-0.066;2022-11-06T06:16:01;7.38;;;2.63;;
55833;SDS011;41761;43.004;-0.066;2022-11-06T06:18:27;4.35;;;2.97;;
55833;SDS011;41761;43.004;-0.066;2022-11-06T06:20:56;5.20;;;2.63;;
55833;SDS011;41761;43.004;-0.066;2022-11-06T06:23:23;6.68;;;2.42;;
55833;SDS011;41761;43.004;-0.066;2022-11-06T06:25:49;4.65;;;2.60;;
55833;SDS011;41761;43.004;-0.066;2022-11-06T06:28:15;3.20;;;3.00;;
55833;SDS011;41761;43.004;-0.066;2022-11-06T06:30:41;2.58;;;2.47;;
55833;SDS011;41761;43.004;-0.066;2022-11-06T06:33:07;5.22;;;2.45;;
55833;SDS011;41761;43.004;-0.066;2022-11-06T06:35:33;3.15;;;2.83;;
55833;SDS011;41761;43.004;-0.066;2022-11-06T06:38:00;5.88;;;2.60;;
55833;SDS011;41761;43.004;-0.066;2022-11-06T06:40:26;5.25;;;2.95;;
55833;SDS011;41761;43.004;-0.066;2022-11-06T06:42:57;5.60;;;2.70;;
55833;SDS011;41761;43.004;-0.066;2022-11-06T06:45:24;6.13;;;2.50;;
55833;SDS011;41761;43.004;-0.066;2022-11-06T06:47:50;4.25;;;2.78;;
55833;SDS011;41761;43.004;-0.066;2022-11-06T06:50:16;6.07;;;2.63;;
55833;SDS011;41761;43.004;-0.066;2022-11-06T06:52:42;2.83;;;2.63;;
55833;SDS011;41761;43.004;-0.066;2022-11-06T06:55:08;3.42;;;2.30;;
55833;SDS011;41761;43.004;-0.066;2022-11-06T06:57:35;3.42;;;2.63;;
55833;SDS011;41761;43.004;-0.066;2022-11-06T07:00:01;2.30;;;2.20;;
55833;SDS011;41761;43.004;-0.066;2022-11-06T07:02:27;2.13;;;2.03;;
55833;SDS011;41761;43.004;-0.066;2022-11-06T07:04:53;2.05;;;1.95;;
55833;SDS011;41761;43.004;-0.066;2022-11-06T07:07:19;3.15;;;2.20;;
55833;SDS011;41761;43.004;-0.066;2022-11-06T07:09:45;2.70;;;2.60;;
55833;SDS011;41761;43.004;-0.066;2022-11-06T07:12:12;8.48;;;2.88;;
55833;SDS011;41761;43.004;-0.066;2022-11-06T07:14:38;3.67;;;2.95;;
55833;SDS011;41761;43.004;-0.066;2022-11-06T07:17:04;2.88;;;2.75;;
55833;SDS011;41761;43.004;-0.066;2022-11-06T07:19:30;9.05;;;2.60;;
55833;SDS011;41761;43.004;-0.066;2022-11-06T07:21:56;7.57;;;2.70;;
55833;SDS011;41761;43.004;-0.066;2022-11-06T07:24:22;5.80;;;2.63;;
55833;SDS011;41761;43.004;-0.066;2022-11-06T07:26:49;2.22;;;2.13;;
55833;SDS011;41761;43.004;-0.066;2022-11-06T07:29:15;4.18;;;2.28;;
55833;SDS011;41761;43.004;-0.066;2022-11-06T07:31:41;3.13;;;2.15;;
55833;SDS011;41761;43.004;-0.066;2022-11-06T07:34:08;1.80;;;1.70;;
55833;SDS011;41761;43.004;-0.066;2022-11-06T07:36:34;3.42;;;2.40;;
55833;SDS011;41761;43.004;-0.066;2022-11-06T07:39:00;2.17;;;2.05;;
55833;SDS011;41761;43.004;-0.066;2022-11-06T07:41:27;2.25;;;2.13;;
55833;SDS011;41761;43.004;-0.066;2022-11-06T07:43:53;3.60;;;3.30;;
55833;SDS011;41761;43.004;-0.066;2022-11-06T07:46:19;2.38;;;2.20;;
55833;SDS011;41761;43.004;-0.066;2022-11-06T07:48:45;3.97;;;1.77;;
55833;SDS011;41761;43.004;-0.066;2022-11-06T07:51:12;2.55;;;2.10;;
55833;SDS011;41761;43.004;-0.066;2022-11-06T07:53:38;3.83;;;2.13;;
55833;SDS011;41761;43.004;-0.066;2022-11-06T07:56:05;4.75;;;2.78;;
55833;SDS011;41761;43.004;-0.066;2022-11-06T07:58:32;2.80;;;2.60;;
55833;SDS011;41761;43.004;-0.066;2022-11-06T08:00:59;2.20;;;1.90;;
55833;SDS011;41761;43.004;-0.066;2022-11-06T08:03:26;2.60;;;2.40;;
55833;SDS011;41761;43.004;-0.066;2022-11-06T08:05:54;3.63;;;2.40;;
55833;SDS011;41761;43.004;-0.066;2022-11-06T08:08:20;6.30;;;2.50;;
55833;SDS011;41761;43.004;-0.066;2022-11-06T08:10:47;2.88;;;2.67;;
55833;SDS011;41761;43.004;-0.066;2022-11-06T08:13:16;2.58;;;2.38;;
55833;SDS011;41761;43.004;-0.066;2022-11-06T08:15:43;2.85;;;2.65;;
55833;SDS011;41761;43.004;-0.066;2022-11-06T08:18:09;2.42;;;2.33;;
55833;SDS011;41761;43.004;-0.066;2022-11-06T08:20:36;3.05;;;2.10;;
55833;SDS011;41761;43.004;-0.066;2022-11-06T08:23:04;2.95;;;2.10;;
55833;SDS011;41761;43.004;-0.066;2022-11-06T08:25:32;2.47;;;2.28;;
55833;SDS011;41761;43.004;-0.066;2022-11-06T08:27:59;5.32;;;2.33;;
55833;SDS011;41761;43.004;-0.066;2022-11-06T08:30:26;2.53;;;2.33;;
55833;SDS011;41761;43.004;-0.066;2022-11-06T08:32:53;6.55;;;2.58;;
55833;SDS011;41761;43.004;-0.066;2022-11-06T08:35:20;4.03;;;2.60;;
55833;SDS011;41761;43.004;-0.066;2022-11-06T08:37:46;5.55;;;2.75;;
55833;SDS011;41761;43.004;-0.066;2022-11-06T08:40:12;3.25;;;2.67;;
55833;SDS011;41761;43.004;-0.066;2022-11-06T08:42:39;2.97;;;2.40;;
55833;SDS011;41761;43.004;-0.066;2022-11-06T08:45:05;2.42;;;2.20;;
55833;SDS011;41761;43.004;-0.066;2022-11-06T08:47:31;2.88;;;2.65;;
55833;SDS011;41761;43.004;-0.066;2022-11-06T08:49:58;3.83;;;2.67;;
55833;SDS011;41761;43.004;-0.066;2022-11-06T08:52:24;2.50;;;2.35;;
55833;SDS011;41761;43.004;-0.066;2022-11-06T08:54:50;10.07;;;2.67;;
55833;SDS011;41761;43.004;-0.066;2022-11-06T08:57:16;4.63;;;2.78;;
55833;SDS011;41761;43.004;-0.066;2022-11-06T08:59:42;3.80;;;2.47;;
55833;SDS011;41761;43.004;-0.066;2022-11-06T09:02:12;3.58;;;2.15;;
55833;SDS011;41761;43.004;-0.066;2022-11-06T09:04:39;2.13;;;1.90;;
55833;SDS011;41761;43.004;-0.066;2022-11-06T09:07:05;6.03;;;2.72;;
55833;SDS011;41761;43.004;-0.066;2022-11-06T09:09:31;4.22;;;2.25;;
55833;SDS011;41761;43.004;-0.066;2022-11-06T09:11:58;5.68;;;2.72;;
55833;SDS011;41761;43.004;-0.066;2022-11-06T09:14:24;3.35;;;2.38;;
55833;SDS011;41761;43.004;-0.066;2022-11-06T09:16:51;2.28;;;2.08;;
55833;SDS011;41761;43.004;-0.066;2022-11-06T09:19:20;7.95;;;2.08;;
55833;SDS011;41761;43.004;-0.066;2022-11-06T09:21:46;9.07;;;2.20;;
55833;SDS011;41761;43.004;-0.066;2022-11-06T09:24:13;7.00;;;2.42;;
55833;SDS011;41761;43.004;-0.066;2022-11-06T09:26:39;4.95;;;3.45;;
55833;SDS011;41761;43.004;-0.066;2022-11-06T09:29:05;2.97;;;2.75;;
55833;SDS011;41761;43.004;-0.066;2022-11-06T09:31:31;2.97;;;2.70;;
55833;SDS011;41761;43.004;-0.066;2022-11-06T09:33:57;3.78;;;2.78;;
55833;SDS011;41761;43.004;-0.066;2022-11-06T09:36:24;3.25;;;2.70;;
55833;SDS011;41761;43.004;-0.066;2022-11-06T09:38:50;4.45;;;2.63;;
55833;SDS011;41761;43.004;-0.066;2022-11-06T09:41:22;4.88;;;2.25;;
55833;SDS011;41761;43.004;-0.066;2022-11-06T09:46:50;2.85;;;2.65;;
55833;SDS011;41761;43.004;-0.066;2022-11-06T09:57:00;2.43;;;1.90;;
55833;SDS011;41761;43.004;-0.066;2022-11-06T09:59:28;3.28;;;2.47;;
55833;SDS011;41761;43.004;-0.066;2022-11-06T10:01:57;3.78;;;2.63;;
55833;SDS011;41761;43.004;-0.066;2022-11-06T10:04:37;1.70;;;1.60;;
55833;SDS011;41761;43.004;-0.066;2022-11-06T10:07:10;2.03;;;1.60;;
55833;SDS011;41761;43.004;-0.066;2022-11-06T10:09:41;1.80;;;1.50;;
55833;SDS011;41761;43.004;-0.066;2022-11-06T10:12:16;2.08;;;1.38;;
55833;SDS011;41761;43.004;-0.066;2022-11-06T10:15:21;2.15;;;1.63;;
55833;SDS011;41761;43.004;-0.066;2022-11-06T10:20:20;1.53;;;1.43;;
55833;SDS011;41761;43.004;-0.066;2022-11-06T10:23:12;1.80;;;1.70;;
55833;SDS011;41761;43.004;-0.066;2022-11-06T10:25:44;2.20;;;1.92;;
55833;SDS011;41761;43.004;-0.066;2022-11-06T10:28:18;5.20;;;1.60;;
55833;SDS011;41761;43.004;-0.066;2022-11-06T10:35:49;1.38;;;1.30;;
55833;SDS011;41761;43.004;-0.066;2022-11-06T10:38:23;2.50;;;1.63;;
55833;SDS011;41761;43.004;-0.066;2022-11-06T10:40:49;1.77;;;1.67;;
55833;SDS011;41761;43.004;-0.066;2022-11-06T10:45:46;2.85;;;1.55;;
55833;SDS011;41761;43.004;-0.066;2022-11-06T10:48:25;4.78;;;1.70;;
55833;SDS011;41761;43.004;-0.066;2022-11-06T10:53:34;3.92;;;1.92;;
55833;SDS011;41761;43.004;-0.066;2022-11-06T10:56:07;1.65;;;1.52;;
55833;SDS011;41761;43.004;-0.066;2022-11-06T10:58:34;1.45;;;1.35;;
55833;SDS011;41761;43.004;-0.066;2022-11-06T11:01:01;1.70;;;1.60;;
55833;SDS011;41761;43.004;-0.066;2022-11-06T11:03:29;2.97;;;1.63;;
55833;SDS011;41761;43.004;-0.066;2022-11-06T11:05:56;2.92;;;1.20;;
55833;SDS011;41761;43.004;-0.066;2022-11-06T11:08:32;1.60;;;1.50;;
55833;SDS011;41761;43.004;-0.066;2022-11-06T11:11:02;1.60;;;1.50;;
55833;SDS011;41761;43.004;-0.066;2022-11-06T11:13:28;2.35;;;1.80;;
55833;SDS011;41761;43.004;-0.066;2022-11-06T11:15:54;5.82;;;1.80;;
55833;SDS011;41761;43.004;-0.066;2022-11-06T11:18:21;4.15;;;1.90;;
55833;SDS011;41761;43.004;-0.066;2022-11-06T11:21:03;2.38;;;1.92;;
55833;SDS011;41761;43.004;-0.066;2022-11-06T11:23:29;1.88;;;1.70;;
55833;SDS011;41761;43.004;-0.066;2022-11-06T11:25:57;6.30;;;2.78;;
55833;SDS011;41761;43.004;-0.066;2022-11-06T11:28:36;2.03;;;1.92;;
55833;SDS011;41761;43.004;-0.066;2022-11-06T11:31:08;9.98;;;1.63;;
55833;SDS011;41761;43.004;-0.066;2022-11-06T11:33:36;2.33;;;1.80;;
55833;SDS011;41761;43.004;-0.066;2022-11-06T11:36:04;8.85;;;2.35;;
55833;SDS011;41761;43.004;-0.066;2022-11-06T11:38:38;2.10;;;1.77;;
55833;SDS011;41761;43.004;-0.066;2022-11-06T11:41:12;7.32;;;1.83;;
55833;SDS011;41761;43.004;-0.066;2022-11-06T11:43:39;5.55;;;1.92;;
55833;SDS011;41761;43.004;-0.066;2022-11-06T11:48:40;3.35;;;2.35;;
55833;SDS011;41761;43.004;-0.066;2022-11-06T11:51:26;5.35;;;1.77;;
55833;SDS011;41761;43.004;-0.066;2022-11-06T11:53:54;9.38;;;1.90;;
55833;SDS011;41761;43.004;-0.066;2022-11-06T11:56:21;6.55;;;2.45;;
55833;SDS011;41761;43.004;-0.066;2022-11-06T11:58:47;2.33;;;2.13;;
55833;SDS011;41761;43.004;-0.066;2022-11-06T12:01:14;4.30;;;2.15;;
55833;SDS011;41761;43.004;-0.066;2022-11-06T12:03:41;2.35;;;1.98;;
55833;SDS011;41761;43.004;-0.066;2022-11-06T12:06:09;2.88;;;2.00;;
55833;SDS011;41761;43.004;-0.066;2022-11-06T12:08:40;2.55;;;1.80;;
55833;SDS011;41761;43.004;-0.066;2022-11-06T12:11:13;1.77;;;1.67;;
55833;SDS011;41761;43.004;-0.066;2022-11-06T12:13:40;2.53;;;1.77;;
55833;SDS011;41761;43.004;-0.066;2022-11-06T12:16:08;4.43;;;1.95;;
55833;SDS011;41761;43.004;-0.066;2022-11-06T12:18:43;3.13;;;2.30;;
55833;SDS011;41761;43.004;-0.066;2022-11-06T12:21:23;4.13;;;2.20;;
55833;SDS011;41761;43.004;-0.066;2022-11-06T12:23:59;3.03;;;1.73;;
55833;SDS011;41761;43.004;-0.066;2022-11-06T12:29:00;2.83;;;1.90;;
55833;SDS011;41761;43.004;-0.066;2022-11-06T12:31:47;3.33;;;2.13;;
55833;SDS011;41761;43.004;-0.066;2022-11-06T12:34:20;2.90;;;2.17;;
55833;SDS011;41761;43.004;-0.066;2022-11-06T12:36:59;4.28;;;1.63;;
55833;SDS011;41761;43.004;-0.066;2022-11-06T12:39:29;5.18;;;1.98;;
55833;SDS011;41761;43.004;-0.066;2022-11-06T12:41:58;3.00;;;1.98;;
55833;SDS011;41761;43.004;-0.066;2022-11-06T12:44:26;4.20;;;1.70;;
55833;SDS011;41761;43.004;-0.066;2022-11-06T12:49:39;4.10;;;2.10;;
55833;SDS011;41761;43.004;-0.066;2022-11-06T12:54:38;2.10;;;1.90;;
55833;SDS011;41761;43.004;-0.066;2022-11-06T13:10:06;2.90;;;1.85;;
55833;SDS011;41761;43.004;-0.066;2022-11-06T13:15:09;4.07;;;1.52;;
55833;SDS011;41761;43.004;-0.066;2022-11-06T13:20:34;3.63;;;1.77;;
55833;SDS011;41761;43.004;-0.066;2022-11-06T13:23:10;1.95;;;1.80;;
55833;SDS011;41761;43.004;-0.066;2022-11-06T13:25:51;3.33;;;1.85;;
55833;SDS011;41761;43.004;-0.066;2022-11-06T13:28:39;1.83;;;1.70;;
55833;SDS011;41761;43.004;-0.066;2022-11-06T13:31:07;1.80;;;1.55;;
55833;SDS011;41761;43.004;-0.066;2022-11-06T13:33:38;2.33;;;2.10;;
55833;SDS011;41761;43.004;-0.066;2022-11-06T13:36:07;2.80;;;1.92;;
55833;SDS011;41761;43.004;-0.066;2022-11-06T13:38:35;8.13;;;1.95;;
55833;SDS011;41761;43.004;-0.066;2022-11-06T13:41:07;1.77;;;1.67;;
55833;SDS011;41761;43.004;-0.066;2022-11-06T13:43:38;1.75;;;1.65;;
55833;SDS011;41761;43.004;-0.066;2022-11-06T13:56:35;3.47;;;1.88;;
55833;SDS011;41761;43.004;-0.066;2022-11-06T13:59:07;1.60;;;1.50;;
55833;SDS011;41761;43.004;-0.066;2022-11-06T14:06:40;2.63;;;2.10;;
55833;SDS011;41761;43.004;-0.066;2022-11-06T14:09:08;1.90;;;1.80;;
55833;SDS011;41761;43.004;-0.066;2022-11-06T14:11:39;2.55;;;1.83;;
55833;SDS011;41761;43.004;-0.066;2022-11-06T14:14:21;1.50;;;1.40;;
55833;SDS011;41761;43.004;-0.066;2022-11-06T14:19:33;4.47;;;1.58;;
55833;SDS011;41761;43.004;-0.066;2022-11-06T14:24:45;6.32;;;1.42;;
55833;SDS011;41761;43.004;-0.066;2022-11-06T14:27:12;1.48;;;1.25;;
55833;SDS011;41761;43.004;-0.066;2022-11-06T14:29:54;1.67;;;1.58;;
55833;SDS011;41761;43.004;-0.066;2022-11-06T14:34:57;1.67;;;1.58;;
55833;SDS011;41761;43.004;-0.066;2022-11-06T14:49:50;5.43;;;2.00;;
55833;SDS011;41761;43.004;-0.066;2022-11-06T14:52:17;2.08;;;1.65;;
55833;SDS011;41761;43.004;-0.066;2022-11-06T14:54:58;2.47;;;1.70;;
55833;SDS011;41761;43.004;-0.066;2022-11-06T15:03:02;2.22;;;1.52;;
55833;SDS011;41761;43.004;-0.066;2022-11-06T15:05:29;7.18;;;1.85;;
55833;SDS011;41761;43.004;-0.066;2022-11-06T15:08:00;3.80;;;1.83;;
55833;SDS011;41761;43.004;-0.066;2022-11-06T15:15:46;2.78;;;1.80;;
55833;SDS011;41761;43.004;-0.066;2022-11-06T15:18:15;3.53;;;1.92;;
55833;SDS011;41761;43.004;-0.066;2022-11-06T15:20:47;2.97;;;1.65;;
55833;SDS011;41761;43.004;-0.066;2022-11-06T15:23:16;2.17;;;1.83;;
55833;SDS011;41761;43.004;-0.066;2022-11-06T15:25:46;4.22;;;1.80;;
55833;SDS011;41761;43.004;-0.066;2022-11-06T15:28:14;3.83;;;1.95;;
55833;SDS011;41761;43.004;-0.066;2022-11-06T15:30:49;3.97;;;1.77;;
55833;SDS011;41761;43.004;-0.066;2022-11-06T15:33:23;5.93;;;2.28;;
55833;SDS011;41761;43.004;-0.066;2022-11-06T15:35:50;2.17;;;1.60;;
55833;SDS011;41761;43.004;-0.066;2022-11-06T15:38:20;3.35;;;2.00;;
55833;SDS011;41761;43.004;-0.066;2022-11-06T15:40:47;2.38;;;1.88;;
55833;SDS011;41761;43.004;-0.066;2022-11-06T15:43:48;2.60;;;2.03;;
55833;SDS011;41761;43.004;-0.066;2022-11-06T15:48:37;2.08;;;1.88;;
55833;SDS011;41761;43.004;-0.066;2022-11-06T15:51:17;4.50;;;2.00;;
55833;SDS011;41761;43.004;-0.066;2022-11-06T15:53:44;3.83;;;2.65;;
55833;SDS011;41761;43.004;-0.066;2022-11-06T15:56:11;6.90;;;2.75;;
55833;SDS011;41761;43.004;-0.066;2022-11-06T15:58:38;3.72;;;2.30;;
55833;SDS011;41761;43.004;-0.066;2022-11-06T16:01:05;3.17;;;2.70;;
55833;SDS011;41761;43.004;-0.066;2022-11-06T16:03:42;6.68;;;2.45;;
55833;SDS011;41761;43.004;-0.066;2022-11-06T16:06:09;9.75;;;2.38;;
55833;SDS011;41761;43.004;-0.066;2022-11-06T16:08:36;15.93;;;2.50;;
55833;SDS011;41761;43.004;-0.066;2022-11-06T16:11:02;3.47;;;2.47;;
55833;SDS011;41761;43.004;-0.066;2022-11-06T16:13:28;8.95;;;3.22;;
55833;SDS011;41761;43.004;-0.066;2022-11-06T16:16:01;11.20;;;3.08;;
55833;SDS011;41761;43.004;-0.066;2022-11-06T16:18:34;9.05;;;3.05;;
55833;SDS011;41761;43.004;-0.066;2022-11-06T16:23:36;7.22;;;2.95;;
55833;SDS011;41761;43.004;-0.066;2022-11-06T16:26:04;10.00;;;3.75;;
55833;SDS011;41761;43.004;-0.066;2022-11-06T16:28:31;4.25;;;3.83;;
55833;SDS011;41761;43.004;-0.066;2022-11-06T16:30:59;5.10;;;2.60;;
55833;SDS011;41761;43.004;-0.066;2022-11-06T16:33:26;4.05;;;3.08;;
55833;SDS011;41761;43.004;-0.066;2022-11-06T16:35:53;10.70;;;3.20;;
55833;SDS011;41761;43.004;-0.066;2022-11-06T16:38:35;4.25;;;2.78;;
55833;SDS011;41761;43.004;-0.066;2022-11-06T16:41:02;7.28;;;3.13;;
55833;SDS011;41761;43.004;-0.066;2022-11-06T16:43:28;4.45;;;2.72;;
55833;SDS011;41761;43.004;-0.066;2022-11-06T16:45:58;5.03;;;3.13;;
55833;SDS011;41761;43.004;-0.066;2022-11-06T16:51:06;9.55;;;4.15;;
55833;SDS011;41761;43.004;-0.066;2022-11-06T16:53:43;6.88;;;3.25;;
55833;SDS011;41761;43.004;-0.066;2022-11-06T16:56:11;7.55;;;3.22;;
55833;SDS011;41761;43.004;-0.066;2022-11-06T16:58:51;6.20;;;3.67;;
55833;SDS011;41761;43.004;-0.066;2022-11-06T17:01:18;4.25;;;3.05;;
55833;SDS011;41761;43.004;-0.066;2022-11-06T17:06:17;8.45;;;3.45;;
55833;SDS011;41761;43.004;-0.066;2022-11-06T17:08:44;9.80;;;4.07;;
55833;SDS011;41761;43.004;-0.066;2022-11-06T17:11:21;10.10;;;3.85;;
55833;SDS011;41761;43.004;-0.066;2022-11-06T17:13:48;7.75;;;4.00;;
55833;SDS011;41761;43.004;-0.066;2022-11-06T17:16:15;7.00;;;4.25;;